Terminal Aerodrome Forecast
Issued by NWS

Current Version | Previous Version | Text Only | Print | Product List | Glossary On
Versions: 1 2 3 4 5 6 7 8 9 10 11 12 13 14 15 16 17 18 19 20 21 22 23 24 25 26 27 28
000
FTUS41 KCTP 201533 AAC
TAFUNV
TAF AMD
KUNV 201533Z 2016/2112 33005KT P6SM SCT250
     FM210000 06004KT P6SM BKN250
     FM210600 13004KT P6SM BKN150=

USA.gov is the U.S. government's official web portal to all federal, state and local government web resources and services.